createdAt,value
2023-03-18T00:01:59.413Z,5.90
2023-03-18T00:04:29.706Z,6.47
2023-03-18T00:06:58.970Z,7.90
2023-03-18T00:09:27.614Z,10.77
2023-03-18T00:11:56.683Z,7.23
2023-03-18T00:14:25.999Z,9.77
2023-03-18T00:16:55.461Z,13.97
2023-03-18T00:19:25.281Z,7.43
2023-03-18T00:21:56.019Z,8.47
2023-03-18T00:24:24.584Z,7.80
2023-03-18T00:26:52.967Z,7.03
2023-03-18T00:29:21.713Z,6.77
2023-03-18T00:31:50.664Z,6.43
2023-03-18T00:34:19.101Z,8.33
2023-03-18T00:36:50.853Z,7.97
2023-03-18T00:39:26.272Z,7.27
2023-03-18T00:41:56.263Z,7.73
2023-03-18T00:44:25.445Z,8.07
2023-03-18T00:46:54.192Z,7.13
2023-03-18T00:49:22.801Z,10.40
2023-03-18T00:51:52.067Z,8.03
2023-03-18T00:54:22.515Z,9.30
2023-03-18T00:56:50.856Z,8.77
2023-03-18T00:59:19.658Z,9.87
2023-03-18T01:01:50.558Z,8.20
2023-03-18T01:04:18.965Z,10.30
2023-03-18T01:06:47.396Z,10.63
2023-03-18T01:09:16.625Z,9.07
2023-03-18T01:11:46.477Z,7.03
2023-03-18T01:14:14.966Z,7.47
2023-03-18T01:16:43.704Z,9.03
2023-03-18T01:19:12.112Z,8.03
2023-03-18T01:21:40.602Z,10.23
2023-03-18T01:24:10.249Z,7.93
2023-03-18T01:26:38.606Z,9.60
2023-03-18T01:29:08.501Z,7.63
2023-03-18T01:31:37.864Z,9.53
2023-03-18T01:34:06.690Z,10.20
2023-03-18T01:36:35.427Z,7.80
2023-03-18T01:39:03.800Z,5.30
2023-03-18T01:41:32.118Z,9.87
2023-03-18T01:44:02.151Z,5.80
2023-03-18T01:46:36.832Z,12.17
2023-03-18T01:49:07.158Z,8.07
2023-03-18T01:51:35.591Z,6.97
2023-03-18T01:54:05.289Z,5.37
2023-03-18T01:56:36.182Z,9.53
2023-03-18T01:59:04.894Z,7.70
2023-03-18T02:01:34.718Z,6.93
2023-03-18T02:04:06.405Z,7.27
2023-03-18T02:06:34.860Z,4.70
2023-03-18T02:09:03.689Z,8.00
2023-03-18T02:11:34.036Z,5.30
2023-03-18T02:14:04.165Z,5.13
2023-03-18T02:16:35.507Z,5.63
2023-03-18T02:19:09.481Z,4.93
2023-03-18T02:21:43.056Z,6.33
2023-03-18T02:24:16.701Z,5.93
2023-03-18T02:26:48.723Z,5.43
2023-03-18T02:29:19.651Z,5.80
2023-03-18T02:31:49.735Z,5.60
2023-03-18T02:34:18.673Z,6.17
2023-03-18T02:36:47.605Z,6.43
2023-03-18T02:39:16.233Z,6.00
2023-03-18T02:41:45.005Z,7.60
2023-03-18T02:44:13.519Z,4.70
2023-03-18T02:46:49.928Z,6.87
2023-03-18T02:49:19.199Z,5.10
2023-03-18T02:51:47.573Z,4.90
2023-03-18T02:54:16.551Z,6.73
2023-03-18T02:56:46.345Z,6.07
2023-03-18T02:59:14.868Z,5.57
2023-03-18T03:01:44.880Z,4.70
2023-03-18T03:04:15.291Z,4.90
2023-03-18T03:06:44.328Z,5.80
2023-03-18T03:09:14.006Z,5.03
2023-03-18T03:11:42.952Z,4.50
2023-03-18T03:14:11.773Z,13.60
2023-03-18T03:16:40.222Z,7.10
2023-03-18T03:19:08.775Z,4.53
2023-03-18T03:21:38.542Z,4.53
2023-03-18T03:24:07.599Z,9.70
2023-03-18T03:26:36.225Z,5.23
2023-03-18T03:29:05.298Z,8.50
2023-03-18T03:31:33.866Z,10.33
2023-03-18T03:34:02.702Z,4.83
2023-03-18T03:36:31.282Z,6.93
2023-03-18T03:39:01.143Z,4.00
2023-03-18T03:41:29.699Z,4.80
2023-03-18T03:43:58.138Z,5.93
2023-03-18T03:46:26.756Z,5.20
2023-03-18T03:48:55.275Z,4.53
2023-03-18T03:51:24.099Z,3.27
2023-03-18T03:53:53.523Z,4.90
2023-03-18T03:56:24.138Z,8.03
2023-03-18T03:58:52.526Z,5.33
2023-03-18T04:01:21.073Z,6.63
2023-03-18T04:03:49.581Z,5.13
2023-03-18T04:06:18.072Z,5.63
2023-03-18T04:08:46.441Z,5.33
2023-03-18T04:11:15.439Z,2.67
2023-03-18T04:13:45.671Z,3.60
2023-03-18T04:16:14.581Z,3.87
2023-03-18T04:18:43.515Z,5.13
2023-03-18T04:21:12.048Z,6.07
2023-03-18T04:23:41.307Z,3.40
2023-03-18T04:26:10.728Z,3.40
2023-03-18T04:28:39.370Z,3.67
2023-03-18T04:31:09.200Z,3.93
2023-03-18T04:33:37.808Z,6.53
2023-03-18T04:36:06.462Z,5.50
2023-03-18T04:38:35.086Z,2.97
2023-03-18T04:41:03.811Z,3.37
2023-03-18T04:43:32.178Z,4.03
2023-03-18T04:46:00.526Z,4.70
2023-03-18T04:48:30.582Z,4.33
2023-03-18T04:50:59.022Z,5.13
2023-03-18T04:53:27.615Z,3.17
2023-03-18T04:55:56.910Z,3.10
2023-03-18T04:58:25.301Z,4.73
2023-03-18T05:00:53.793Z,8.63
2023-03-18T05:03:23.804Z,3.07
2023-03-18T05:05:53.480Z,4.83
2023-03-18T05:08:21.892Z,4.73
2023-03-18T05:10:51.785Z,5.07
2023-03-18T05:13:20.210Z,4.67
2023-03-18T05:15:48.651Z,3.63
2023-03-18T05:18:17.133Z,4.67
2023-03-18T05:20:46.098Z,4.70
2023-03-18T05:23:16.755Z,4.43
2023-03-18T05:25:45.040Z,10.53
2023-03-18T05:28:13.337Z,3.13
2023-03-18T05:30:42.989Z,4.53
2023-03-18T05:33:11.435Z,4.07
2023-03-18T05:35:40.056Z,6.50
2023-03-18T05:38:08.775Z,4.90
2023-03-18T05:40:39.272Z,7.50
2023-03-18T05:43:07.793Z,4.73
2023-03-18T05:45:39.812Z,4.30
2023-03-18T05:48:08.817Z,5.57
2023-03-18T05:50:37.958Z,4.97
2023-03-18T05:53:06.907Z,6.00
2023-03-18T05:55:35.912Z,5.40
2023-03-18T05:58:06.252Z,3.27
2023-03-18T06:00:34.660Z,8.40
2023-03-18T06:03:03.567Z,4.57
2023-03-18T06:05:32.271Z,2.70
2023-03-18T06:08:02.141Z,3.50
2023-03-18T06:10:31.489Z,3.90
2023-03-18T06:13:01.938Z,3.63
2023-03-18T06:15:35.657Z,9.80
2023-03-18T06:18:05.130Z,3.10
2023-03-18T06:20:34.851Z,5.63
2023-03-18T06:23:06.706Z,2.93
2023-03-18T06:25:37.958Z,4.03
2023-03-18T06:28:08.688Z,4.20
2023-03-18T06:30:39.568Z,4.03
2023-03-18T06:33:08.750Z,3.83
2023-03-18T06:35:37.461Z,3.90
2023-03-18T06:38:06.484Z,6.47
2023-03-18T06:40:37.402Z,4.83
2023-03-18T06:43:06.228Z,3.67
2023-03-18T06:45:35.664Z,3.40
2023-03-18T06:48:06.327Z,3.13
2023-03-18T06:50:50.218Z,3.57
2023-03-18T06:53:19.155Z,6.40
2023-03-18T06:55:49.276Z,6.33
2023-03-18T06:58:18.679Z,5.07
2023-03-18T07:00:48.071Z,4.83
2023-03-18T07:03:18.767Z,8.53
2023-03-18T07:05:47.346Z,7.90
2023-03-18T07:08:20.350Z,5.47
2023-03-18T07:10:48.727Z,5.83
2023-03-18T07:13:17.008Z,4.07
2023-03-18T07:15:45.487Z,4.77
2023-03-18T07:18:14.205Z,4.93
2023-03-18T07:20:44.175Z,6.47
2023-03-18T07:23:12.533Z,5.63
2023-03-18T07:25:42.054Z,5.30
2023-03-18T07:28:10.341Z,3.63
2023-03-18T07:30:39.572Z,5.43
2023-03-18T07:33:08.870Z,5.67
2023-03-18T07:35:40.995Z,6.30
2023-03-18T07:38:11.643Z,9.03
2023-03-18T07:40:40.133Z,5.63
2023-03-18T07:43:09.218Z,4.90
2023-03-18T07:45:37.588Z,5.53
2023-03-18T07:48:06.391Z,4.97
2023-03-18T07:50:35.916Z,5.23
2023-03-18T07:53:04.723Z,5.87
2023-03-18T07:55:35.045Z,8.33
2023-03-18T07:58:05.354Z,3.90
2023-03-18T08:00:33.845Z,3.97
2023-03-18T08:03:02.714Z,4.77
2023-03-18T08:05:32.134Z,4.07
2023-03-18T08:08:02.363Z,4.90
2023-03-18T08:10:31.292Z,5.43
2023-03-18T08:13:01.353Z,3.37
2023-03-18T08:15:30.213Z,4.33
2023-03-18T08:17:58.875Z,3.93
2023-03-18T08:20:27.342Z,4.77
2023-03-18T08:22:56.072Z,7.40
2023-03-18T08:25:24.579Z,5.23
2023-03-18T08:27:54.798Z,4.60
2023-03-18T08:30:28.855Z,5.43
2023-03-18T08:32:57.992Z,9.17
2023-03-18T08:35:26.654Z,4.13
2023-03-18T08:37:56.556Z,3.90
2023-03-18T08:40:26.597Z,4.13
2023-03-18T08:42:59.091Z,2.83
2023-03-18T08:45:28.910Z,3.57
2023-03-18T08:47:57.208Z,3.13
2023-03-18T08:50:28.505Z,7.87
2023-03-18T08:53:00.582Z,6.53
2023-03-18T08:55:31.191Z,6.23
2023-03-18T08:58:00.168Z,4.10
2023-03-18T09:00:30.443Z,4.13
2023-03-18T09:02:58.900Z,3.27
2023-03-18T09:05:27.649Z,6.33
2023-03-18T09:07:55.923Z,5.80
2023-03-18T09:10:24.545Z,4.50
2023-03-18T09:12:53.150Z,5.37
2023-03-18T09:15:22.549Z,5.47
2023-03-18T09:18:09.952Z,4.27
2023-03-18T09:20:39.301Z,4.03
2023-03-18T09:23:07.867Z,3.03
2023-03-18T09:25:36.706Z,4.20
2023-03-18T09:28:19.966Z,6.20
2023-03-18T09:30:48.596Z,4.87
2023-03-18T09:33:18.532Z,5.63
2023-03-18T09:35:46.953Z,5.53
2023-03-18T09:38:17.926Z,4.50
2023-03-18T09:40:52.894Z,6.87
2023-03-18T09:43:30.458Z,3.93
2023-03-18T09:46:03.707Z,4.80
2023-03-18T09:48:47.074Z,4.23
2023-03-18T09:51:24.161Z,6.37
2023-03-18T09:53:54.657Z,5.57
2023-03-18T09:56:25.197Z,5.90
2023-03-18T09:58:56.517Z,5.00
2023-03-18T10:01:25.889Z,7.60
2023-03-18T10:03:57.491Z,3.93
2023-03-18T10:06:27.976Z,5.33
2023-03-18T10:09:00.626Z,2.43
2023-03-18T10:11:32.662Z,5.27
2023-03-18T10:17:09.472Z,4.97
2023-03-18T10:19:39.120Z,5.90
2023-03-18T10:22:17.779Z,3.97
2023-03-18T10:24:51.781Z,3.53
2023-03-18T10:27:24.654Z,6.53
2023-03-18T10:29:56.055Z,2.90
2023-03-18T10:32:46.550Z,4.77
2023-03-18T10:35:21.889Z,6.43
2023-03-18T10:37:54.640Z,5.50
2023-03-18T10:40:23.182Z,4.30
2023-03-18T10:42:52.664Z,3.27
2023-03-18T10:45:24.407Z,4.63
2023-03-18T10:47:56.626Z,4.97
2023-03-18T10:50:28.867Z,3.50
2023-03-18T10:53:01.398Z,5.70
2023-03-18T10:55:31.785Z,5.57
2023-03-18T10:58:00.480Z,3.67
2023-03-18T11:00:30.777Z,5.67
2023-03-18T11:02:59.867Z,4.10
2023-03-18T11:05:29.423Z,8.07
2023-03-18T11:08:01.017Z,4.50
2023-03-18T11:10:32.303Z,4.80
2023-03-18T11:13:02.804Z,5.10
2023-03-18T11:15:31.340Z,6.33
2023-03-18T11:18:01.541Z,2.80
2023-03-18T11:20:37.742Z,3.50
2023-03-18T11:23:13.018Z,3.43
2023-03-18T11:25:43.012Z,3.53
2023-03-18T11:28:22.406Z,4.20
2023-03-18T11:30:53.065Z,3.63
2023-03-18T11:33:21.733Z,6.20
2023-03-18T11:35:53.295Z,3.77
2023-03-18T11:38:28.676Z,3.80
2023-03-18T11:41:08.973Z,13.77
2023-03-18T11:43:39.004Z,6.47
2023-03-18T11:46:09.712Z,6.73
2023-03-18T11:48:39.898Z,3.93
2023-03-18T11:51:24.106Z,3.50
2023-03-18T12:00:21.529Z,8.30
2023-03-18T12:03:13.287Z,13.33
2023-03-18T12:05:47.661Z,5.60
2023-03-18T12:08:23.549Z,8.23
2023-03-18T12:11:03.143Z,8.40
2023-03-18T12:13:48.455Z,4.60
2023-03-18T12:16:41.420Z,5.30
2023-03-18T12:19:31.944Z,3.37
2023-03-18T12:25:50.343Z,3.93
2023-03-18T12:31:34.631Z,4.53
2023-03-18T12:34:06.329Z,4.97
2023-03-18T12:36:50.448Z,5.00
2023-03-18T12:42:58.881Z,5.37
2023-03-18T12:45:47.703Z,7.47
2023-03-18T12:48:44.069Z,5.30
2023-03-18T12:51:20.657Z,4.47
2023-03-18T12:57:02.710Z,6.57
2023-03-18T12:59:36.541Z,4.50
2023-03-18T13:02:32.590Z,4.23
2023-03-18T13:05:07.855Z,6.13
2023-03-18T13:07:48.776Z,4.37
2023-03-18T13:10:36.399Z,5.37
2023-03-18T13:13:11.183Z,5.67
2023-03-18T13:16:06.504Z,6.43
2023-03-18T13:18:39.569Z,7.33
2023-03-18T13:21:12.593Z,5.00
2023-03-18T13:23:50.689Z,5.00
2023-03-18T13:26:23.432Z,4.13
2023-03-18T13:28:59.533Z,9.20
2023-03-18T13:31:34.676Z,4.53
2023-03-18T13:34:13.730Z,4.53
2023-03-18T13:37:19.033Z,4.40
2023-03-18T13:39:56.693Z,3.50
2023-03-18T13:42:29.370Z,4.50
2023-03-18T13:45:02.630Z,7.20
2023-03-18T13:47:35.118Z,4.33
2023-03-18T13:50:08.015Z,7.47
2023-03-18T13:52:44.862Z,4.90
2023-03-18T13:55:31.945Z,4.43
2023-03-18T13:58:18.624Z,6.00
2023-03-18T14:00:56.440Z,4.03
2023-03-18T14:03:30.935Z,5.47
2023-03-18T14:06:23.341Z,4.10
2023-03-18T14:08:54.673Z,5.63
2023-03-18T14:12:02.247Z,5.53
2023-03-18T14:14:56.005Z,6.20
2023-03-18T14:20:26.136Z,4.03
2023-03-18T14:22:59.419Z,3.57
2023-03-18T14:25:55.344Z,8.83
2023-03-18T14:28:29.343Z,4.20
2023-03-18T14:31:01.383Z,4.70
2023-03-18T14:36:32.419Z,4.27
2023-03-18T14:39:05.882Z,4.00
2023-03-18T14:44:39.208Z,3.03
2023-03-18T14:50:06.730Z,3.57
2023-03-18T14:52:38.835Z,5.00
2023-03-18T14:57:44.299Z,3.57
2023-03-18T15:00:17.338Z,6.53
2023-03-18T15:02:50.738Z,4.63
2023-03-18T15:05:25.799Z,4.03
2023-03-18T15:07:55.356Z,6.57
2023-03-18T15:10:26.564Z,3.50
2023-03-18T15:13:08.603Z,5.07
2023-03-18T15:15:37.621Z,3.77
2023-03-18T15:18:23.178Z,4.77
2023-03-18T15:20:56.468Z,5.57
2023-03-18T15:23:30.119Z,6.43
2023-03-18T15:26:00.161Z,6.07
2023-03-18T15:28:32.626Z,6.90
2023-03-18T15:31:03.270Z,5.23
2023-03-18T15:33:34.029Z,4.53
2023-03-18T15:36:18.680Z,4.53
2023-03-18T15:39:10.023Z,4.53
2023-03-18T15:41:41.228Z,6.20
2023-03-18T15:44:17.323Z,7.37
2023-03-18T15:46:50.716Z,7.47
2023-03-18T15:49:19.602Z,6.73
2023-03-18T15:51:50.922Z,4.37
2023-03-18T15:54:30.757Z,5.67
2023-03-18T15:57:03.475Z,5.10
2023-03-18T15:59:33.088Z,3.57
2023-03-18T16:02:04.402Z,8.97
2023-03-18T16:04:36.631Z,8.40
2023-03-18T16:07:22.208Z,5.33
2023-03-18T16:09:54.529Z,5.17
2023-03-18T16:12:24.679Z,8.50
2023-03-18T16:17:53.813Z,5.60
2023-03-18T16:20:24.579Z,11.63
2023-03-18T16:22:53.587Z,5.57
2023-03-18T16:25:26.031Z,4.27
2023-03-18T16:28:08.399Z,7.23
2023-03-18T16:30:40.504Z,4.90
2023-03-18T16:33:15.249Z,8.27
2023-03-18T16:35:45.719Z,4.73
2023-03-18T16:38:17.550Z,4.27
2023-03-18T16:40:47.629Z,4.50
2023-03-18T16:43:18.471Z,5.97
2023-03-18T16:45:49.516Z,9.83
2023-03-18T16:48:19.496Z,7.17
2023-03-18T16:50:50.165Z,9.57
2023-03-18T16:53:21.992Z,4.57
2023-03-18T16:58:37.489Z,3.93
2023-03-18T17:01:07.599Z,6.27
2023-03-18T17:03:36.759Z,7.33
2023-03-18T17:06:06.797Z,4.07
2023-03-18T17:08:36.697Z,19.97
2023-03-18T17:11:07.802Z,4.83
2023-03-18T17:13:38.707Z,5.90
2023-03-18T17:16:31.623Z,7.07
2023-03-18T17:18:59.976Z,7.47
2023-03-18T17:21:30.535Z,8.77
2023-03-18T17:24:16.682Z,4.83
2023-03-18T17:26:51.146Z,8.80
2023-03-18T17:29:24.637Z,7.47
2023-03-18T17:31:53.468Z,7.23
2023-03-18T17:34:22.610Z,4.27
2023-03-18T17:36:50.878Z,6.70
2023-03-18T17:39:19.800Z,8.40
2023-03-18T17:41:51.546Z,11.13
2023-03-18T17:44:30.284Z,9.30
2023-03-18T17:46:59.288Z,10.70
2023-03-18T17:49:28.916Z,6.97
2023-03-18T17:51:57.945Z,5.27
2023-03-18T17:54:27.154Z,8.83
2023-03-18T17:57:01.011Z,8.57
2023-03-18T17:59:30.031Z,9.17
2023-03-18T18:01:59.426Z,6.00
2023-03-18T18:04:32.793Z,9.70
2023-03-18T18:07:02.799Z,6.33
2023-03-18T18:09:32.472Z,9.07
2023-03-18T18:12:09.369Z,6.03
2023-03-18T18:14:39.071Z,8.47
2023-03-18T18:17:25.909Z,6.17
2023-03-18T18:19:56.774Z,6.13
2023-03-18T18:22:26.789Z,11.57
2023-03-18T18:24:57.532Z,12.87
2023-03-18T18:27:28.335Z,11.43
2023-03-18T18:29:56.956Z,9.10
2023-03-18T18:32:27.778Z,8.17
2023-03-18T18:34:58.033Z,9.87
2023-03-18T18:37:27.378Z,6.67
2023-03-18T18:39:56.537Z,9.63
2023-03-18T18:42:25.096Z,8.93
2023-03-18T18:44:58.108Z,8.73
2023-03-18T18:47:27.240Z,10.97
2023-03-18T18:49:57.596Z,13.87
2023-03-18T18:52:27.376Z,12.50
2023-03-18T18:54:57.280Z,10.80
2023-03-18T18:57:42.138Z,6.37
2023-03-18T19:00:17.611Z,11.23
2023-03-18T19:02:48.869Z,10.67
2023-03-18T19:05:19.167Z,7.97
2023-03-18T19:07:57.529Z,7.43
2023-03-18T19:10:28.619Z,9.93
2023-03-18T19:12:58.815Z,9.23
2023-03-18T19:18:21.480Z,9.23
2023-03-18T19:20:59.211Z,6.13
2023-03-18T19:23:28.675Z,11.47
2023-03-18T19:25:58.434Z,11.13
2023-03-18T19:28:47.770Z,6.87
2023-03-18T19:31:22.242Z,8.10
2023-03-18T19:33:56.782Z,12.70
2023-03-18T19:36:27.757Z,7.77
2023-03-18T19:38:56.719Z,13.93
2023-03-18T19:41:29.717Z,16.47
2023-03-18T19:47:06.913Z,13.17
2023-03-18T19:49:39.380Z,10.57
2023-03-18T19:52:14.393Z,8.70
2023-03-18T19:54:43.228Z,9.20
2023-03-18T19:57:15.056Z,11.33
2023-03-18T19:59:44.616Z,9.33
2023-03-18T20:02:23.317Z,9.43
2023-03-18T20:04:54.387Z,14.03
2023-03-18T20:07:23.778Z,9.43
2023-03-18T20:09:52.633Z,15.07
2023-03-18T20:12:25.923Z,8.20
2023-03-18T20:14:54.743Z,12.17
2023-03-18T20:17:29.772Z,19.90
2023-03-18T20:20:01.912Z,10.90
2023-03-18T20:22:34.505Z,11.57
2023-03-18T20:25:06.205Z,10.63
2023-03-18T20:27:34.965Z,10.37
2023-03-18T20:30:14.225Z,9.23
2023-03-18T20:32:42.855Z,15.27
2023-03-18T20:35:13.435Z,11.90
2023-03-18T20:37:41.910Z,8.93
2023-03-18T20:40:16.088Z,8.90
2023-03-18T20:42:44.523Z,11.77
2023-03-18T20:45:16.213Z,8.93
2023-03-18T20:47:45.857Z,10.30
2023-03-18T20:50:16.898Z,19.77
2023-03-18T20:52:45.719Z,13.60
2023-03-18T20:55:25.454Z,14.47
2023-03-18T20:57:54.561Z,14.80
2023-03-18T21:00:24.145Z,16.03
2023-03-18T21:02:53.454Z,14.80
2023-03-18T21:05:23.856Z,14.87
2023-03-18T21:07:52.832Z,16.37
2023-03-18T21:10:22.302Z,9.73
2023-03-18T21:12:50.918Z,13.70
2023-03-18T21:15:21.346Z,17.03
2023-03-18T21:17:50.389Z,29.83
2023-03-18T21:20:22.520Z,31.67
2023-03-18T21:22:53.028Z,27.97
2023-03-18T21:25:23.015Z,18.37
2023-03-18T21:27:52.455Z,16.87
2023-03-18T21:30:22.066Z,16.73
2023-03-18T21:32:51.257Z,14.47
2023-03-18T21:35:21.753Z,17.30
2023-03-18T21:37:50.419Z,18.30
2023-03-18T21:40:23.282Z,16.33
2023-03-18T21:42:52.258Z,14.83
2023-03-18T21:45:23.988Z,11.00
2023-03-18T21:47:53.293Z,16.83
2023-03-18T21:50:22.806Z,16.37
2023-03-18T21:52:51.408Z,14.70
2023-03-18T21:55:21.789Z,14.93
2023-03-18T21:57:50.129Z,10.17
2023-03-18T22:00:20.421Z,16.40
2023-03-18T22:02:49.224Z,11.97
2023-03-18T22:05:18.824Z,15.60
2023-03-18T22:07:47.760Z,14.10
2023-03-18T22:10:17.173Z,14.73
2023-03-18T22:12:47.444Z,16.53
2023-03-18T22:15:34.017Z,14.27
2023-03-18T22:18:02.726Z,14.77
2023-03-18T22:20:31.804Z,11.40
2023-03-18T22:23:00.548Z,14.07
2023-03-18T22:25:30.830Z,11.13
2023-03-18T22:28:01.067Z,15.40
2023-03-18T22:30:30.063Z,16.70
2023-03-18T22:32:59.071Z,11.50
2023-03-18T22:35:28.063Z,11.93
2023-03-18T22:37:57.279Z,16.07
2023-03-18T22:40:27.178Z,14.23
2023-03-18T22:43:02.832Z,15.87
2023-03-18T22:45:33.997Z,14.77
2023-03-18T22:48:03.382Z,14.37
2023-03-18T22:50:32.946Z,11.73
2023-03-18T22:53:02.986Z,8.50
2023-03-18T22:55:34.913Z,15.47
2023-03-18T22:58:04.013Z,9.50
2023-03-18T23:00:35.922Z,12.23
2023-03-18T23:03:04.365Z,12.57
2023-03-18T23:05:33.187Z,11.33
2023-03-18T23:08:01.804Z,16.10
2023-03-18T23:10:30.363Z,14.73
2023-03-18T23:12:58.869Z,13.73
2023-03-18T23:15:27.408Z,14.03
2023-03-18T23:17:57.780Z,10.57
2023-03-18T23:20:26.167Z,13.43
2023-03-18T23:22:54.682Z,11.90
2023-03-18T23:25:23.112Z,11.60
2023-03-18T23:27:51.842Z,11.10
2023-03-18T23:30:20.616Z,15.27
2023-03-18T23:32:49.465Z,13.20
2023-03-18T23:35:19.821Z,16.93
2023-03-18T23:37:48.225Z,16.77
2023-03-18T23:40:17.699Z,12.90
2023-03-18T23:42:48.064Z,12.43
2023-03-18T23:45:16.837Z,10.83
2023-03-18T23:47:46.460Z,12.00
2023-03-18T23:52:59.036Z,13.73
2023-03-18T23:55:34.409Z,10.40
2023-03-18T23:58:03.482Z,15.07
